Terminal Aerodrome Forecast
Issued by NWS

Home | Current Version | Previous Version | Text Only | Print | Product List | Glossary On
Versions: 1 2 3 4 5 6 7 8 9 10 11 12 13 14
000
FTUS46 KSGX 160500
TAFONT
TAF
KONT 160520Z 1606/1712 VRB04KT P6SM SKC
     FM161100 VRB04KT 5SM BR SKC
      TEMPO 1612/1615 2SM BR SCT004
     FM161700 VRB04KT P6SM SKC
     FM162100 26011G18KT P6SM SKC
     FM170400 VRB04KT P6SM SKC
     FM170900 VRB04KT 5SM BR BKN007=

USA.gov is the U.S. government's official web portal to all federal, state and local government web resources and services.